Ana Sayfa
METAR-TAF:

METAR-TAF

Havaalanları :

Funchal, Madeira, Portekiz

Enlem: 32-41-52N, Boylam: 016-46-28W, yükseklik: 59 m

Güncel hava durumu gözlemi

Rapor saat 02:00 UTC de 10 dakika önce yapıldı.
Rüzgar değişken yönden 8 kt ve 18 kt'a kadar ani rüzgarlar
Sıcaklık 16°C
Nem 72%
Basınç 1023 hPa
Görüş mesafesi 10 km veya daha fazla
1500 ft yükseklikte parçalı bulutlu

METAR: LPMA 260200Z VRB08G18KT 9999 SCT015 16/11 Q1023

Saat: 03:10 (02:10 UTC)

Tahmin

Rapor saat 23:00 UTC de 3 saat ve 10 dakika önce yapıldı.
Ayın 26'si saat 00 UTC'den ayın 26'si saat 24 UTC'ye kadar geçerli Tahmin
Rüzgar kuzeydan 12 kt
Görüş mesafesi 10 km veya daha fazla
1500 ft yükseklikte parçalı bulutlu
Geçici
ayın 26'si saat 00 UTC'den ayın 26'si saat 20 UTC'ye kadar
Rüzgar kuzeydan 15 kt ve 25 kt'a kadar ani rüzgarlar
1300 ft yükseklikte parçalı çok bulutlu

TAF: LPMA 252300Z 2600/2624 01012KT 9999 SCT015 TEMPO 2600/2620 01015G25KT BKN013

4.000'den fazla havaalanı için hava durumu gözlemleri ve tahminleri (METAR ve TAF raporları).

Kullanılabilir istasyonlar harita üzerinde sarı ve kırmızı noktalarla gösterilir.

İstasyonun adını görmek için fareyi noktanın üzerinde gezdirin.

Sonrasında hava gözlem ve tahminlerini görmek için tıklayın.

Haritayı değiştirmek için: yaklaştırmak için siyah artı işaretli yeşil düğmeye ve uzaklaştırmak için de eksi işaretli düğmeye hızla tıklayın; bitişik haritalar için yeşil okları kullanın.


METAR-TAF: